Time;durP1;ratioP1;P1;durP2;ratioP2;P2;SDS_P1;SDS_P2;PMS_P1;PMS_P2;Temp;Humidity;BMP_temperature;BMP_pressure;BME280_temperature;BME280_humidity;BME280_pressure;Samples;Min_cycle;Max_cycle;Signal;HPM_P1;HPM_P2
2022/12/27 00:02:30;;;;;;;10.68;3.85;;;4.90;99.90;;;;;;5014492;28;20022;-87
2022/12/27 00:05:00;;;;;;;12.68;3.88;;;4.90;99.90;;;;;;4998059;28;20100;-87
2022/12/27 00:07:29;;;;;;;11.35;3.60;;;4.90;99.90;;;;;;4998534;28;20026;-84
2022/12/27 00:09:54;;;;;;;12.68;4.40;;;4.90;99.90;;;;;;4998066;28;20033;-84
2022/12/27 00:12:33;;;;;;;11.27;3.40;;;4.90;99.90;;;;;;4997957;28;20446;-86
2022/12/27 00:14:58;;;;;;;12.10;4.00;;;4.90;99.90;;;;;;5014324;28;20030;-87
2022/12/27 00:17:24;;;;;;;12.55;4.50;;;4.90;99.90;;;;;;4997980;28;20387;-87
2022/12/27 00:19:50;;;;;;;10.10;3.78;;;4.90;99.90;;;;;;4997958;28;20049;-90
2022/12/27 00:22:19;;;;;;;11.57;4.10;;;4.90;99.90;;;;;;4998305;28;20061;-91
2022/12/27 00:24:45;;;;;;;13.65;3.47;;;4.90;99.90;;;;;;5015027;28;20041;-90
2022/12/27 00:27:11;;;;;;;14.38;3.50;;;4.80;99.90;;;;;;5015295;28;20018;-90
2022/12/27 00:29:37;;;;;;;10.13;4.00;;;4.80;99.90;;;;;;4998892;28;20087;-91
2022/12/27 00:32:02;;;;;;;11.70;4.10;;;4.80;99.90;;;;;;4998970;28;20022;-86
2022/12/27 00:37:50;;;;;;;9.32;3.83;;;4.90;99.90;;;;;;5015667;28;20072;-88
2022/12/27 00:40:15;;;;;;;15.23;4.20;;;4.80;99.90;;;;;;4997880;28;20387;-87
2022/12/27 00:42:41;;;;;;;10.88;3.60;;;4.80;99.90;;;;;;4997616;28;20026;-86
2022/12/27 00:45:07;;;;;;;13.93;4.40;;;4.80;99.90;;;;;;4997769;28;20022;-86
2022/12/27 00:47:33;;;;;;;15.05;4.22;;;4.80;99.90;;;;;;5013717;28;20033;-86
2022/12/27 00:49:59;;;;;;;14.85;4.28;;;4.80;99.90;;;;;;4997432;28;20030;-86
2022/12/27 00:52:24;;;;;;;14.10;3.55;;;4.80;99.90;;;;;;5013673;28;20067;-86
2022/12/27 00:54:50;;;;;;;12.85;4.05;;;4.80;99.90;;;;;;4997351;28;20091;-84
2022/12/27 01:01:19;;;;;;;11.48;3.30;;;4.80;99.90;;;;;;5014020;28;20117;-85
2022/12/27 01:03:45;;;;;;;9.77;3.78;;;4.80;99.90;;;;;;5013283;28;20018;-85
2022/12/27 01:06:17;;;;;;;13.48;4.35;;;4.80;99.90;;;;;;5013337;28;20029;-85
2022/12/27 01:08:44;;;;;;;15.57;4.45;;;4.80;99.90;;;;;;5013244;28;20057;-85
2022/12/27 01:11:17;;;;;;;12.50;4.03;;;4.80;99.90;;;;;;4997318;28;20364;-85
2022/12/27 01:13:46;;;;;;;11.40;3.97;;;4.80;99.90;;;;;;5013304;28;20022;-85
2022/12/27 01:16:18;;;;;;;11.50;4.03;;;4.80;99.90;;;;;;4996737;28;20034;-84
2022/12/27 01:18:48;;;;;;;14.07;4.32;;;4.70;99.90;;;;;;5013250;28;20466;-84
2022/12/27 01:21:19;;;;;;;13.70;4.05;;;4.70;99.90;;;;;;4997408;28;20025;-88
2022/12/27 01:23:45;;;;;;;11.48;4.28;;;4.70;99.90;;;;;;5014677;28;20116;-89
2022/12/27 01:26:16;;;;;;;8.02;3.85;;;4.70;99.90;;;;;;4998110;28;20140;-88
2022/12/27 01:28:42;;;;;;;11.18;3.97;;;4.70;99.90;;;;;;5013674;28;20018;-85
2022/12/27 01:31:11;;;;;;;10.48;3.92;;;4.70;99.90;;;;;;4997230;28;20116;-84
2022/12/27 01:33:37;;;;;;;12.63;4.28;;;4.70;99.90;;;;;;5014389;28;20058;-84
2022/12/27 01:36:22;;;;;;;9.80;3.88;;;4.70;99.90;;;;;;5013657;28;20088;-85
2022/12/27 01:38:49;;;;;;;15.27;4.15;;;4.70;99.90;;;;;;5014232;28;20030;-85
2022/12/27 01:44:33;;;;;;;14.35;4.95;;;4.70;99.90;;;;;;5016019;28;20028;-89
2022/12/27 01:47:03;;;;;;;10.40;4.18;;;4.60;99.90;;;;;;5015084;28;20022;-90
2022/12/27 01:49:29;;;;;;;12.40;4.28;;;4.60;99.90;;;;;;5013609;28;20022;-90
2022/12/27 01:51:55;;;;;;;14.63;3.92;;;4.70;99.90;;;;;;4998237;28;20049;-89
2022/12/27 01:54:21;;;;;;;15.25;4.72;;;4.70;99.90;;;;;;4997857;28;20053;-89
2022/12/27 01:56:47;;;;;;;12.45;5.60;;;4.60;99.90;;;;;;4997935;28;20061;-89
2022/12/27 01:59:13;;;;;;;14.05;4.95;;;4.60;99.90;;;;;;4997348;28;20030;-88
2022/12/27 02:01:46;;;;;;;8.82;3.80;;;4.70;99.90;;;;;;4996810;28;20514;-87
2022/12/27 02:04:17;;;;;;;11.50;4.30;;;4.70;99.90;;;;;;5012838;28;20470;-87
2022/12/27 02:06:44;;;;;;;12.90;4.40;;;4.70;99.90;;;;;;5012759;28;20121;-87
2022/12/27 02:09:41;;;;;;;11.35;4.05;;;4.70;99.90;;;;;;5013310;28;20021;-87
2022/12/27 02:12:08;;;;;;;11.50;4.00;;;4.60;99.90;;;;;;5013969;28;20030;-87
2022/12/27 02:14:48;;;;;;;15.70;4.03;;;4.70;99.90;;;;;;5013544;28;20080;-87
2022/12/27 02:17:23;;;;;;;13.00;4.35;;;4.70;99.90;;;;;;5013958;28;20084;-85
2022/12/27 02:20:12;;;;;;;14.10;4.30;;;4.70;99.90;;;;;;5012315;28;20080;-85
2022/12/27 02:26:17;;;;;;;15.20;4.20;;;4.80;99.90;;;;;;5013523;28;20056;-85
2022/12/27 02:29:17;;;;;;;13.50;5.10;;;4.80;99.90;;;;;;5012326;28;20380;-85
2022/12/27 02:32:05;;;;;;;10.13;3.75;;;4.90;99.90;;;;;;5012671;28;20088;-87
2022/12/27 02:34:36;;;;;;;12.52;4.53;;;4.90;99.90;;;;;;5012681;28;20475;-85
2022/12/27 02:37:07;;;;;;;16.55;5.43;;;5.00;99.90;;;;;;5012115;28;20044;-85
2022/12/27 02:39:38;;;;;;;17.25;5.22;;;5.00;99.90;;;;;;5012469;28;20026;-85
2022/12/27 02:54:03;;;;;;;11.32;4.25;;;5.10;99.90;;;;;;5016828;28;20548;-87
2022/12/27 02:57:13;;;;;;;15.55;4.00;;;5.00;99.90;;;;;;4960224;28;20537;-87
2022/12/27 03:18:24;;;;;;;14.65;5.53;;;4.90;99.90;;;;;;5017391;28;20117;-86
2022/12/27 03:26:23;;;;;;;14.07;4.05;;;4.90;99.90;;;;;;5010861;28;20057;-86
2022/12/27 03:34:37;;;;;;;9.98;4.05;;;4.90;99.90;;;;;;5017315;28;20033;-86
2022/12/27 03:40:18;;;;;;;15.25;4.90;;;5.00;99.90;;;;;;5017556;28;20056;-86
2022/12/27 03:43:10;;;;;;;11.57;4.35;;;5.00;99.90;;;;;;4987342;28;20128;-86
2022/12/27 03:48:58;;;;;;;12.32;4.47;;;5.10;99.90;;;;;;5004188;28;20030;-86
2022/12/27 03:51:26;;;;;;;9.35;4.55;;;5.10;99.90;;;;;;5014875;28;20022;-86
2022/12/27 03:53:58;;;;;;;15.32;5.32;;;5.10;99.90;;;;;;5014681;28;20022;-86
2022/12/27 03:56:24;;;;;;;15.40;5.03;;;5.00;99.90;;;;;;5015783;28;20022;-86
2022/12/27 03:58:51;;;;;;;20.27;4.90;;;5.10;99.90;;;;;;4998963;28;20394;-86
2022/12/27 04:01:16;;;;;;;13.02;5.35;;;5.10;99.90;;;;;;5015559;28;20088;-86
2022/12/27 04:04:03;;;;;;;16.35;4.32;;;5.10;99.90;;;;;;4998514;28;20022;-86
2022/12/27 04:06:29;;;;;;;14.77;4.13;;;5.00;99.90;;;;;;4998355;28;20026;-86
2022/12/27 04:36:29;;;;;;;16.90;5.13;;;4.90;99.90;;;;;;5014826;28;20613;-86
2022/12/27 04:38:55;;;;;;;11.55;4.72;;;4.80;99.90;;;;;;5013923;28;20064;-85
2022/12/27 04:55:15;;;;;;;21.00;4.90;;;4.90;99.90;;;;;;5015178;28;20100;-87
2022/12/27 04:57:40;;;;;;;14.45;3.92;;;4.90;99.90;;;;;;5014053;28;20041;-85
2022/12/27 05:02:51;;;;;;;16.52;4.93;;;4.90;99.90;;;;;;5015221;28;20040;-85
2022/12/27 05:05:17;;;;;;;13.43;3.85;;;4.90;99.90;;;;;;5015722;28;20042;-89
2022/12/27 05:15:58;;;;;;;13.57;4.10;;;4.90;99.90;;;;;;5013733;28;20065;-87
2022/12/27 05:18:24;;;;;;;12.75;4.40;;;4.90;99.90;;;;;;4997421;28;20034;-87
2022/12/27 05:26:56;;;;;;;17.30;4.57;;;4.90;99.90;;;;;;5014255;28;20135;-90
2022/12/27 05:29:21;;;;;;;14.93;4.10;;;4.90;99.90;;;;;;4997642;28;20038;-89
2022/12/27 05:31:47;;;;;;;16.30;4.13;;;4.90;99.90;;;;;;4997848;28;20034;-89
2022/12/27 05:34:13;;;;;;;12.95;4.07;;;4.90;99.90;;;;;;5014284;28;20061;-90
2022/12/27 05:36:38;;;;;;;13.70;4.75;;;4.90;99.90;;;;;;5014101;28;20026;-86
2022/12/27 05:39:19;;;;;;;11.57;3.97;;;4.90;99.90;;;;;;4996408;28;20030;-85
2022/12/27 05:41:48;;;;;;;12.27;4.10;;;4.90;99.90;;;;;;5012739;28;20040;-86
2022/12/27 05:44:20;;;;;;;14.65;4.35;;;4.90;99.90;;;;;;4996361;28;20050;-86
2022/12/27 05:46:53;;;;;;;15.02;3.58;;;4.90;99.90;;;;;;4996384;28;20030;-86
2022/12/27 05:49:22;;;;;;;12.18;3.50;;;4.90;99.90;;;;;;5012671;28;20021;-85
2022/12/27 05:51:51;;;;;;;11.05;3.78;;;4.90;99.90;;;;;;4996445;28;20037;-85
2022/12/27 05:54:22;;;;;;;14.98;4.10;;;4.90;99.90;;;;;;4996979;28;20474;-86
2022/12/27 05:56:54;;;;;;;15.43;3.72;;;4.80;99.90;;;;;;5012686;28;20034;-86
2022/12/27 05:59:20;;;;;;;13.35;4.00;;;4.90;99.90;;;;;;4996270;28;20116;-86
2022/12/27 06:02:22;;;;;;;15.15;3.50;;;4.80;99.90;;;;;;4996116;28;20225;-85
2022/12/27 06:04:48;;;;;;;17.05;4.57;;;4.90;99.90;;;;;;5002995;28;20030;-86
2022/12/27 06:07:15;;;;;;;14.57;3.88;;;4.80;99.90;;;;;;4996246;28;20026;-86
2022/12/27 06:09:41;;;;;;;10.05;3.78;;;4.80;99.90;;;;;;5012493;28;20026;-86
2022/12/27 06:12:06;;;;;;;13.90;4.50;;;4.90;99.90;;;;;;5012976;28;20033;-87
2022/12/27 06:14:32;;;;;;;14.82;3.95;;;4.90;99.90;;;;;;4996338;28;20018;-85
2022/12/27 06:16:58;;;;;;;15.57;3.63;;;4.90;99.90;;;;;;4996653;28;20062;-85
2022/12/27 06:20:02;;;;;;;11.18;3.00;;;4.80;99.90;;;;;;5013587;28;20065;-85
2022/12/27 06:22:28;;;;;;;20.13;4.38;;;4.90;99.90;;;;;;5016542;28;20036;-85
2022/12/27 06:24:53;;;;;;;12.07;3.90;;;4.90;99.90;;;;;;4999919;28;20113;-85
2022/12/27 06:27:25;;;;;;;14.55;3.30;;;4.90;99.90;;;;;;4999895;28;20054;-86
2022/12/27 06:29:51;;;;;;;12.85;3.80;;;4.80;99.90;;;;;;5001081;28;20030;-85
2022/12/27 06:32:17;;;;;;;15.38;4.00;;;4.80;99.90;;;;;;5017377;28;20034;-85
2022/12/27 06:34:44;;;;;;;12.73;4.18;;;4.80;99.90;;;;;;5017446;28;20030;-85
2022/12/27 06:37:11;;;;;;;14.00;4.03;;;4.80;99.90;;;;;;4999881;28;20030;-85
2022/12/27 06:39:36;;;;;;;10.10;3.50;;;4.80;99.90;;;;;;4999746;28;20026;-85
2022/12/27 06:42:02;;;;;;;13.88;4.05;;;4.80;99.90;;;;;;5017197;28;20537;-85
2022/12/27 06:44:28;;;;;;;13.10;3.75;;;4.80;99.90;;;;;;5000251;28;20033;-89
2022/12/27 06:46:54;;;;;;;9.45;3.40;;;4.80;99.90;;;;;;5000294;28;20034;-86
2022/12/27 06:49:20;;;;;;;12.32;4.00;;;4.80;99.90;;;;;;4999640;28;20121;-86
2022/12/27 06:51:47;;;;;;;18.23;4.35;;;4.80;99.90;;;;;;4999593;28;20064;-86
2022/12/27 06:54:13;;;;;;;11.90;3.80;;;4.90;99.90;;;;;;4999497;28;20030;-86
2022/12/27 06:56:39;;;;;;;12.05;3.58;;;4.80;99.90;;;;;;5017076;28;20057;-86
2022/12/27 06:59:05;;;;;;;12.65;3.85;;;4.80;99.90;;;;;;4999347;28;20057;-85
2022/12/27 07:01:30;;;;;;;13.35;4.00;;;4.80;99.90;;;;;;4999945;28;20038;-88
2022/12/27 07:03:59;;;;;;;13.70;3.95;;;4.80;99.90;;;;;;5016638;28;20036;-90
2022/12/27 07:06:27;;;;;;;12.88;3.97;;;4.80;99.90;;;;;;5017684;28;20032;-89
2022/12/27 07:08:54;;;;;;;11.13;3.55;;;4.80;99.90;;;;;;5016424;28;20029;-89
2022/12/27 07:11:20;;;;;;;9.88;3.53;;;4.80;99.90;;;;;;5016630;28;20080;-89
2022/12/27 07:13:49;;;;;;;9.95;3.40;;;4.80;99.90;;;;;;5000624;28;20072;-89
2022/12/27 07:16:21;;;;;;;11.90;3.40;;;4.80;99.90;;;;;;5016675;28;20494;-88
2022/12/27 07:18:46;;;;;;;12.25;3.65;;;4.80;99.90;;;;;;5016381;28;20371;-88
2022/12/27 07:21:14;;;;;;;13.35;3.60;;;4.80;99.90;;;;;;5000121;28;20026;-90
2022/12/27 07:23:40;;;;;;;13.07;3.80;;;4.80;99.90;;;;;;5016326;28;20415;-89
2022/12/27 07:26:13;;;;;;;10.20;3.40;;;4.90;99.90;;;;;;5016166;28;20057;-90
2022/12/27 07:28:39;;;;;;;9.48;4.05;;;4.90;99.90;;;;;;5016811;28;20025;-89
2022/12/27 07:31:14;;;;;;;10.60;3.80;;;4.90;99.90;;;;;;5015960;28;20160;-89
2022/12/27 07:33:41;;;;;;;18.52;4.15;;;4.90;99.90;;;;;;5015928;28;20145;-86
2022/12/27 07:36:11;;;;;;;13.27;3.95;;;4.90;99.90;;;;;;5015332;28;20018;-86
2022/12/27 07:38:37;;;;;;;10.57;3.58;;;4.90;99.90;;;;;;5015152;28;20033;-86
2022/12/27 07:41:03;;;;;;;12.57;4.38;;;4.80;99.90;;;;;;5014889;28;20025;-86
2022/12/27 07:43:32;;;;;;;13.30;4.60;;;4.80;99.90;;;;;;4999486;28;20030;-85
2022/12/27 07:46:19;;;;;;;18.90;4.10;;;4.80;99.90;;;;;;5015978;28;20353;-85
2022/12/27 07:48:46;;;;;;;19.10;4.60;;;4.80;99.90;;;;;;5015652;28;20018;-85
2022/12/27 07:51:12;;;;;;;16.27;5.05;;;4.80;99.90;;;;;;5014797;28;20483;-89
2022/12/27 07:53:38;;;;;;;16.92;4.65;;;4.80;99.90;;;;;;5008015;28;20046;-89
2022/12/27 07:56:07;;;;;;;12.52;5.22;;;4.80;99.90;;;;;;4985929;28;20058;-89
2022/12/27 07:58:51;;;;;;;17.38;4.65;;;4.80;99.90;;;;;;4999648;28;20069;-90
2022/12/27 08:01:19;;;;;;;12.05;5.43;;;4.80;99.90;;;;;;5011803;28;20022;-89
2022/12/27 08:03:45;;;;;;;15.32;5.03;;;4.80;99.90;;;;;;5011831;28;20026;-88
2022/12/27 08:06:32;;;;;;;14.27;5.10;;;4.70;99.90;;;;;;4995256;28;20116;-88
2022/12/27 08:09:01;;;;;;;14.40;6.03;;;4.80;99.90;;;;;;4996551;28;20023;-89
2022/12/27 08:11:27;;;;;;;12.95;5.32;;;4.80;99.90;;;;;;5011634;28;20018;-89
2022/12/27 08:13:53;;;;;;;14.35;5.53;;;4.80;99.90;;;;;;5011245;28;20030;-88
2022/12/27 08:16:21;;;;;;;13.65;5.65;;;4.80;99.90;;;;;;4995549;28;20455;-88
2022/12/27 08:18:47;;;;;;;14.43;5.75;;;4.80;99.90;;;;;;5012971;28;20526;-89
2022/12/27 08:21:13;;;;;;;20.52;5.47;;;4.80;99.90;;;;;;4996207;28;20026;-89
2022/12/27 08:23:39;;;;;;;12.30;4.82;;;4.80;99.90;;;;;;4995649;28;20057;-88
2022/12/27 08:26:06;;;;;;;11.32;4.78;;;4.80;99.90;;;;;;4996133;28;20081;-87
2022/12/27 08:28:32;;;;;;;14.20;6.00;;;4.80;99.90;;;;;;4996279;28;20025;-88
2022/12/27 08:30:59;;;;;;;18.50;5.22;;;4.80;99.90;;;;;;5014500;28;20494;-89
2022/12/27 08:33:25;;;;;;;14.30;4.97;;;4.80;99.90;;;;;;4997763;28;20365;-89
2022/12/27 08:35:52;;;;;;;31.95;7.32;;;4.90;99.90;;;;;;4997726;28;20109;-88
2022/12/27 08:38:18;;;;;;;18.63;6.38;;;4.90;99.90;;;;;;5012491;28;20034;-89
2022/12/27 08:40:44;;;;;;;18.23;5.82;;;4.90;99.90;;;;;;5009550;23;20054;-85
2022/12/27 08:43:11;;;;;;;14.68;4.90;;;4.90;99.90;;;;;;5012966;28;20033;-85
2022/12/27 08:45:38;;;;;;;17.65;6.50;;;4.90;99.90;;;;;;5013730;28;20437;-85
2022/12/27 08:48:04;;;;;;;14.85;5.75;;;4.90;99.90;;;;;;5014865;28;20018;-85
2022/12/27 08:50:31;;;;;;;16.67;5.90;;;4.90;99.90;;;;;;5014740;28;20033;-85
2022/12/27 08:53:01;;;;;;;14.85;6.13;;;4.80;99.90;;;;;;4997253;28;20030;-85
2022/12/27 08:55:27;;;;;;;15.52;6.40;;;4.90;99.90;;;;;;5029925;28;20117;-84
2022/12/27 08:57:57;;;;;;;20.27;5.28;;;4.90;99.90;;;;;;5032321;28;20026;-84
2022/12/27 09:00:24;;;;;;;15.85;5.53;;;4.90;99.90;;;;;;5000789;28;20502;-84
2022/12/27 09:02:50;;;;;;;19.48;6.28;;;4.90;99.90;;;;;;5016809;28;20089;-84
2022/12/27 09:05:17;;;;;;;17.40;5.43;;;4.90;99.90;;;;;;5015520;28;20049;-84
2022/12/27 09:07:42;;;;;;;10.45;5.10;;;4.90;99.90;;;;;;5030383;28;20033;-84
2022/12/27 09:10:08;;;;;;;13.35;4.97;;;5.00;99.90;;;;;;5014775;28;20177;-84
2022/12/27 09:12:34;;;;;;;17.13;5.25;;;4.90;99.90;;;;;;5013199;28;20438;-84
2022/12/27 09:15:00;;;;;;;14.35;5.55;;;5.00;99.90;;;;;;4996965;28;20034;-85
2022/12/27 09:17:26;;;;;;;14.00;5.40;;;5.00;99.90;;;;;;5013777;28;20065;-89
2022/12/27 09:19:52;;;;;;;19.52;5.82;;;5.00;99.90;;;;;;4998218;28;20475;-90
2022/12/27 09:22:18;;;;;;;17.80;6.20;;;5.00;99.90;;;;;;5014486;28;20030;-90
2022/12/27 09:24:44;;;;;;;18.25;6.20;;;5.10;99.90;;;;;;5031393;28;20041;-91
2022/12/27 09:27:09;;;;;;;15.05;5.18;;;5.00;99.90;;;;;;5014871;28;20026;-89
2022/12/27 09:29:35;;;;;;;16.92;5.53;;;5.10;99.90;;;;;;5014903;28;20163;-91
2022/12/27 09:32:01;;;;;;;14.13;6.43;;;5.10;99.90;;;;;;5014818;28;20132;-90
2022/12/27 09:34:26;;;;;;;19.52;5.13;;;5.20;99.90;;;;;;4998063;28;20034;-90
2022/12/27 09:36:52;;;;;;;11.90;5.57;;;5.20;99.90;;;;;;5030306;28;20033;-83
2022/12/27 09:39:18;;;;;;;11.55;5.63;;;5.20;99.90;;;;;;5014312;28;20065;-85
2022/12/27 09:42:11;;;;;;;15.13;5.20;;;5.30;99.90;;;;;;5013602;28;20121;-88
2022/12/27 09:44:40;;;;;;;16.17;5.00;;;5.30;99.90;;;;;;5012917;28;20030;-85
2022/12/27 09:47:11;;;;;;;15.05;5.47;;;5.30;99.90;;;;;;5013314;28;20028;-88
2022/12/27 09:49:42;;;;;;;15.65;5.80;;;5.30;99.90;;;;;;5013673;28;20077;-92
2022/12/27 09:52:24;;;;;;;23.77;6.72;;;5.40;99.90;;;;;;5014067;28;20060;-90
2022/12/27 10:01:28;;;;;;;20.67;6.18;;;5.40;99.90;;;;;;5015122;28;20092;-91
2022/12/27 10:03:53;;;;;;;14.15;5.68;;;5.50;99.90;;;;;;5030185;28;20033;-84
2022/12/27 10:06:50;;;;;;;16.73;5.15;;;5.50;99.90;;;;;;5012611;28;20467;-83
2022/12/27 10:09:50;;;;;;;16.95;5.45;;;5.60;99.90;;;;;;5028933;28;20025;-84
2022/12/27 10:12:24;;;;;;;17.17;6.43;;;5.50;99.90;;;;;;5028835;28;20033;-84
2022/12/27 10:15:32;;;;;;;20.10;7.28;;;5.50;99.90;;;;;;5012298;28;20117;-84
2022/12/27 10:18:05;;;;;;;16.35;6.50;;;5.50;99.90;;;;;;5014317;28;20049;-84
2022/12/27 10:20:52;;;;;;;22.65;7.80;;;5.60;99.90;;;;;;5012673;28;20037;-85
2022/12/27 10:23:31;;;;;;;15.60;7.25;;;5.60;99.90;;;;;;5013597;28;20022;-84
2022/12/27 10:26:01;;;;;;;17.98;8.90;;;5.60;99.90;;;;;;5028787;28;20056;-85
2022/12/27 10:28:42;;;;;;;19.05;9.48;;;5.70;99.90;;;;;;5028656;28;20026;-85
2022/12/27 10:31:16;;;;;;;16.33;7.97;;;5.70;99.90;;;;;;5013528;28;20036;-83
2022/12/27 10:33:43;;;;;;;17.60;7.63;;;5.70;99.90;;;;;;5012246;28;20034;-84
2022/12/27 10:36:13;;;;;;;13.95;7.97;;;5.70;99.90;;;;;;5028565;28;20017;-84
2022/12/27 10:38:38;;;;;;;21.17;8.73;;;5.80;99.90;;;;;;5013097;28;20026;-88
2022/12/27 10:41:42;;;;;;;19.35;8.00;;;5.80;99.90;;;;;;5029100;28;20049;-88
2022/12/27 10:44:11;;;;;;;17.50;7.28;;;5.90;99.90;;;;;;5014315;28;20030;-88
2022/12/27 10:46:37;;;;;;;20.52;8.82;;;6.00;99.90;;;;;;5013289;28;20022;-89
2022/12/27 10:49:21;;;;;;;16.63;7.75;;;6.00;99.90;;;;;;5013258;28;20033;-84
2022/12/27 10:51:48;;;;;;;16.63;7.82;;;6.10;99.90;;;;;;5028470;28;20022;-84
2022/12/27 10:54:25;;;;;;;17.52;7.90;;;6.20;99.90;;;;;;5013336;28;20022;-85
2022/12/27 10:56:52;;;;;;;17.25;7.10;;;6.20;99.90;;;;;;5028933;28;20033;-85
2022/12/27 10:59:22;;;;;;;18.75;7.53;;;6.20;99.90;;;;;;5028408;28;20080;-84
2022/12/27 11:02:01;;;;;;;14.77;7.10;;;6.30;99.90;;;;;;5028625;28;20125;-83
2022/12/27 11:04:28;;;;;;;20.77;7.68;;;6.30;99.90;;;;;;5011848;28;20054;-83
2022/12/27 11:07:03;;;;;;;13.75;6.55;;;6.40;99.90;;;;;;4998801;28;20030;-83
2022/12/27 11:09:30;;;;;;;14.50;7.18;;;6.50;99.90;;;;;;5015501;28;20026;-83
2022/12/27 11:12:14;;;;;;;13.93;6.30;;;6.50;99.90;;;;;;5032235;28;20069;-83
2022/12/27 11:15:09;;;;;;;16.83;6.15;;;6.60;99.90;;;;;;5015709;28;20117;-83
2022/12/27 11:17:39;;;;;;;16.48;6.50;;;6.60;99.90;;;;;;5016989;28;20029;-83
2022/12/27 11:20:28;;;;;;;11.32;6.20;;;6.70;99.90;;;;;;5016554;28;20368;-83
2022/12/27 11:23:15;;;;;;;20.85;6.40;;;6.70;99.90;;;;;;5015111;28;20498;-83
2022/12/27 11:25:55;;;;;;;19.13;5.75;;;6.80;99.90;;;;;;5031682;28;20022;-84
2022/12/27 11:28:38;;;;;;;17.33;5.90;;;6.90;99.90;;;;;;5031675;28;20048;-84
2022/12/27 11:31:18;;;;;;;13.30;5.88;;;6.90;99.90;;;;;;5032180;28;20493;-84
2022/12/27 11:33:50;;;;;;;10.02;5.03;;;7.00;99.90;;;;;;5031638;28;20474;-83
2022/12/27 11:36:27;;;;;;;15.52;5.50;;;7.10;99.90;;;;;;5016303;28;20029;-83
2022/12/27 11:38:53;;;;;;;10.93;5.13;;;7.10;99.90;;;;;;5014943;28;20032;-83
2022/12/27 11:41:39;;;;;;;11.98;4.82;;;7.20;99.90;;;;;;5014643;28;20066;-83
2022/12/27 11:44:16;;;;;;;10.25;4.63;;;7.30;99.90;;;;;;5015349;28;20022;-88
2022/12/27 11:47:06;;;;;;;9.02;4.03;;;7.30;99.90;;;;;;5016433;28;20037;-90
2022/12/27 11:49:39;;;;;;;12.38;3.85;;;7.40;99.90;;;;;;5016419;28;20026;-89
2022/12/27 11:52:35;;;;;;;13.05;4.22;;;7.40;99.90;;;;;;5001007;28;20042;-89
2022/12/27 11:55:25;;;;;;;13.77;4.30;;;7.50;99.90;;;;;;5016323;28;20022;-89
2022/12/27 11:58:20;;;;;;;11.05;4.07;;;7.50;99.90;;;;;;5016161;28;20087;-89
2022/12/27 12:01:10;;;;;;;11.68;3.97;;;7.60;99.90;;;;;;5003323;28;20037;-88
2022/12/27 12:04:06;;;;;;;8.85;3.47;;;7.60;99.90;;;;;;5015555;28;20034;-89
2022/12/27 12:06:49;;;;;;;13.00;3.55;;;7.80;99.90;;;;;;5016354;28;20458;-87
2022/12/27 12:09:38;;;;;;;10.65;3.80;;;7.80;99.90;;;;;;5033691;28;20566;-88
2022/12/27 12:12:26;;;;;;;13.93;3.97;;;7.90;99.90;;;;;;5016686;28;20418;-83
2022/12/27 12:15:10;;;;;;;17.83;4.10;;;8.00;99.90;;;;;;5015254;28;20025;-90
2022/12/27 12:17:57;;;;;;;12.27;3.30;;;8.10;99.90;;;;;;5013731;28;20025;-84
2022/12/27 12:20:34;;;;;;;13.63;4.13;;;8.20;99.90;;;;;;5014264;28;20429;-84
2022/12/27 12:23:09;;;;;;;8.48;3.78;;;8.30;99.90;;;;;;5014116;28;20061;-83
2022/12/27 12:26:22;;;;;;;20.52;4.10;;;8.40;99.90;;;;;;5014095;28;20459;-86
2022/12/27 12:29:13;;;;;;;9.15;3.47;;;8.40;99.90;;;;;;5001628;28;20040;-86
2022/12/27 12:31:59;;;;;;;9.85;3.17;;;8.50;99.90;;;;;;5014618;28;20040;-87
2022/12/27 12:34:55;;;;;;;12.77;3.38;;;8.60;99.90;;;;;;5030728;28;20470;-84
2022/12/27 12:37:45;;;;;;;11.32;2.95;;;8.70;99.90;;;;;;5014480;28;20033;-90
2022/12/27 12:44:12;;;;;;;8.27;2.60;;;8.80;99.90;;;;;;5016380;28;20037;-90
2022/12/27 12:46:55;;;;;;;7.50;3.13;;;8.90;99.90;;;;;;5015308;28;20030;-90
2022/12/27 12:49:43;;;;;;;8.85;2.75;;;8.90;99.90;;;;;;5030706;28;20034;-84
2022/12/27 12:52:28;;;;;;;11.18;3.33;;;8.90;99.90;;;;;;5013631;28;20033;-84
2022/12/27 12:55:15;;;;;;;7.82;2.50;;;8.80;99.90;;;;;;5015904;28;20092;-90
2022/12/27 12:58:34;;;;;;;9.07;2.55;;;8.80;99.90;;;;;;5015083;28;20132;-90
2022/12/27 13:01:29;;;;;;;7.35;2.92;;;8.70;99.90;;;;;;5013927;28;20041;-83
2022/12/27 13:04:20;;;;;;;7.32;2.97;;;8.60;99.90;;;;;;5005800;28;20026;-83
2022/12/27 13:06:55;;;;;;;9.90;3.55;;;8.60;99.90;;;;;;5012812;28;20076;-90
2022/12/27 13:09:32;;;;;;;9.70;3.17;;;8.60;99.90;;;;;;5002690;28;20109;-90
2022/12/27 13:12:38;;;;;;;8.77;2.95;;;8.50;99.90;;;;;;5010086;28;20049;-88
2022/12/27 13:15:41;;;;;;;9.95;3.00;;;8.50;99.90;;;;;;4994425;28;20033;-88
2022/12/27 13:18:25;;;;;;;8.32;3.03;;;8.50;99.90;;;;;;4999011;28;20035;-88
2022/12/27 13:21:20;;;;;;;11.77;2.95;;;8.50;99.90;;;;;;5009899;28;20533;-88
2022/12/27 13:24:07;;;;;;;6.32;2.88;;;8.50;99.90;;;;;;5005253;28;20391;-88
2022/12/27 13:27:07;;;;;;;10.20;3.10;;;8.50;99.90;;;;;;5001903;28;20017;-89
2022/12/27 13:29:51;;;;;;;11.77;3.10;;;8.50;99.90;;;;;;5021495;28;20112;-88
2022/12/27 13:32:30;;;;;;;8.00;3.28;;;8.50;99.90;;;;;;5002536;28;20517;-88
2022/12/27 13:35:14;;;;;;;11.20;3.00;;;8.40;99.90;;;;;;4997514;28;20085;-88
2022/12/27 13:37:56;;;;;;;7.75;3.25;;;8.50;99.90;;;;;;4997740;28;20117;-89
2022/12/27 13:40:46;;;;;;;7.65;3.20;;;8.60;99.90;;;;;;5005990;28;20054;-84
2022/12/27 13:43:31;;;;;;;6.43;2.85;;;8.60;99.90;;;;;;5004587;28;20388;-84
2022/12/27 13:46:34;;;;;;;11.38;3.08;;;8.70;99.90;;;;;;5012134;28;20049;-83
2022/12/27 13:49:36;;;;;;;11.88;3.92;;;8.70;99.90;;;;;;5007032;28;20038;-84
2022/12/27 13:52:34;;;;;;;9.90;3.00;;;8.70;99.90;;;;;;5001374;28;20048;-83
2022/12/27 13:55:29;;;;;;;8.57;3.40;;;8.70;99.90;;;;;;5012115;28;20014;-83
2022/12/27 13:58:32;;;;;;;12.80;4.13;;;8.60;99.90;;;;;;5003580;28;20120;-90
2022/12/27 14:01:13;;;;;;;7.97;3.17;;;8.70;99.90;;;;;;5008835;28;20037;-89
2022/12/27 14:03:51;;;;;;;15.35;3.30;;;8.60;99.90;;;;;;5012188;28;20052;-90
2022/12/27 14:06:47;;;;;;;9.27;2.63;;;8.70;99.90;;;;;;5008343;28;20034;-90
2022/12/27 14:09:49;;;;;;;11.65;2.80;;;8.70;99.90;;;;;;4996475;28;20096;-89
2022/12/27 14:12:33;;;;;;;;;;;8.60;99.90;;;;;;5006034;28;20516;-90
2022/12/27 14:15:05;;;;;;;7.50;3.20;;;8.60;99.90;;;;;;5008037;28;19909;-84
2022/12/27 14:17:48;;;;;;;8.73;2.88;;;8.60;99.90;;;;;;5007973;28;20037;-84
2022/12/27 14:20:43;;;;;;;9.10;3.17;;;8.60;99.90;;;;;;5002334;28;20027;-84
2022/12/27 14:23:32;;;;;;;13.52;3.00;;;8.60;99.90;;;;;;5000775;28;20034;-84
2022/12/27 14:26:33;;;;;;;10.10;3.40;;;8.60;99.90;;;;;;5008294;28;20467;-84
2022/12/27 14:29:11;;;;;;;;;;;8.60;99.90;;;;;;5003525;28;20471;-85
2022/12/27 14:32:10;;;;;;;8.35;2.78;;;8.50;99.90;;;;;;5003074;28;19917;-89
2022/12/27 14:35:00;;;;;;;9.80;2.90;;;8.50;99.90;;;;;;5001499;28;20026;-90
2022/12/27 14:37:35;;;;;;;8.52;2.90;;;8.50;99.90;;;;;;5006495;28;20124;-90
2022/12/27 14:40:30;;;;;;;9.25;2.97;;;8.50;99.90;;;;;;5011309;28;20026;-91
2022/12/27 14:43:17;;;;;;;13.50;3.10;;;8.40;99.90;;;;;;5003241;28;20492;-91
2022/12/27 14:46:10;;;;;;;10.85;2.83;;;8.40;99.90;;;;;;5015272;28;20033;-84
2022/12/27 14:48:35;;;;;;;9.85;3.60;;;8.40;99.90;;;;;;5011106;28;20430;-92
2022/12/27 14:51:30;;;;;;;7.82;2.67;;;8.40;99.90;;;;;;5014900;28;20034;-91
2022/12/27 14:54:10;;;;;;;8.18;2.95;;;8.40;99.90;;;;;;4993108;28;20034;-91
2022/12/27 14:56:51;;;;;;;9.50;3.22;;;8.40;99.90;;;;;;5016482;28;20021;-92
2022/12/27 14:59:28;;;;;;;12.45;3.00;;;8.40;99.90;;;;;;5012733;28;20080;-93
2022/12/27 15:02:24;;;;;;;8.27;2.63;;;8.40;99.90;;;;;;5013484;28;20033;-91
2022/12/27 15:05:37;;;;;;;8.25;2.65;;;8.40;99.90;;;;;;5006404;28;20139;-91
2022/12/27 15:08:30;;;;;;;5.28;2.25;;;8.40;99.90;;;;;;5015743;28;20038;-91
2022/12/27 15:11:25;;;;;;;7.47;2.65;;;8.40;99.90;;;;;;5005393;28;20048;-90
2022/12/27 15:14:18;;;;;;;8.20;2.75;;;8.40;99.90;;;;;;5027700;28;20056;-91
2022/12/27 15:17:00;;;;;;;10.02;2.85;;;8.40;99.90;;;;;;5002664;28;20022;-91
2022/12/27 15:19:35;;;;;;;8.50;2.63;;;8.30;99.90;;;;;;5008697;28;20084;-90
2022/12/27 15:22:22;;;;;;;12.27;3.00;;;8.40;99.90;;;;;;5016372;28;20084;-88
2022/12/27 15:24:54;;;;;;;8.00;3.08;;;8.40;99.90;;;;;;5012079;28;20053;-88
2022/12/27 15:27:55;;;;;;;12.20;2.67;;;8.40;99.90;;;;;;5005227;28;20022;-87
2022/12/27 15:30:34;;;;;;;11.10;3.00;;;8.40;99.90;;;;;;5011586;28;20018;-83
2022/12/27 15:33:30;;;;;;;7.75;2.67;;;8.30;99.90;;;;;;5002451;28;20030;-84
2022/12/27 15:36:05;;;;;;;11.68;3.28;;;8.30;99.90;;;;;;5004260;28;20025;-84
2022/12/27 15:38:50;;;;;;;16.92;4.45;;;8.30;99.90;;;;;;5010986;28;20041;-84
2022/12/27 15:41:45;;;;;;;12.30;3.13;;;8.30;99.90;;;;;;5006742;28;20137;-85
2022/12/27 15:44:33;;;;;;;8.98;2.58;;;8.30;99.90;;;;;;5019489;28;20034;-91
2022/12/27 15:47:17;;;;;;;15.18;3.40;;;8.30;99.90;;;;;;5013189;28;20026;-92